Bexar, Arkansas
Current Conditions -  °F | °C
As of 11:28 PM on Wednesday 26 Nov 2014 (Local Time) from KBPK Reporting Station
Broken Clouds Broken Clouds  
Wind Chill: 29°   Ceiling: 2800
Heat Index: 36°   Visibility: 10mi
Dew Point: 26°   Wind: 9mph
Humidity: 67%   Direction: 320°NW
Pressure: 30.27"   Gusts: 25mph
Location:  36.29°N, 92°W
Report Text: KBPK 270528Z AUTO 32008G22KT 280V040 10SM BKN028 02/M03 A3027 RMK AO2 PK WND 29027/0516 T00221033
Loading
Personal Weather Stations






























Interactive Weather Map New forecast layout! Learn more

10-Day Weather Forecast

Advertisements
Track Severe Weather on mobile